sensor_id;sensor_type;location;lat;lon;timestamp;temperature;humidity
18047;DHT22;9148;51.454;13.862;2023-06-01T00:01:39;13.30;69.80
18047;DHT22;9148;51.454;13.862;2023-06-01T00:04:05;13.20;70.00
18047;DHT22;9148;51.454;13.862;2023-06-01T00:06:32;13.20;70.40
18047;DHT22;9148;51.454;13.862;2023-06-01T00:08:58;13.10;70.70
18047;DHT22;9148;51.454;13.862;2023-06-01T00:11:24;13.10;71.00
18047;DHT22;9148;51.454;13.862;2023-06-01T00:13:52;13.00;71.50
18047;DHT22;9148;51.454;13.862;2023-06-01T00:16:19;13.00;71.90
18047;DHT22;9148;51.454;13.862;2023-06-01T00:18:45;13.00;72.10
18047;DHT22;9148;51.454;13.862;2023-06-01T00:21:11;13.00;72.50
18047;DHT22;9148;51.454;13.862;2023-06-01T00:23:37;12.90;72.70
18047;DHT22;9148;51.454;13.862;2023-06-01T00:26:06;12.90;73.20
18047;DHT22;9148;51.454;13.862;2023-06-01T00:28:33;12.90;73.60
18047;DHT22;9148;51.454;13.862;2023-06-01T00:30:59;12.90;73.90
18047;DHT22;9148;51.454;13.862;2023-06-01T00:33:25;12.80;74.20
18047;DHT22;9148;51.454;13.862;2023-06-01T00:35:51;12.80;74.70
18047;DHT22;9148;51.454;13.862;2023-06-01T00:38:17;12.70;75.20
18047;DHT22;9148;51.454;13.862;2023-06-01T00:40:42;12.60;75.70
18047;DHT22;9148;51.454;13.862;2023-06-01T00:43:15;12.60;76.30
18047;DHT22;9148;51.454;13.862;2023-06-01T00:45:42;12.50;76.80
18047;DHT22;9148;51.454;13.862;2023-06-01T00:48:07;12.50;77.20
18047;DHT22;9148;51.454;13.862;2023-06-01T00:50:33;12.40;77.50
18047;DHT22;9148;51.454;13.862;2023-06-01T00:53:00;12.40;77.80
18047;DHT22;9148;51.454;13.862;2023-06-01T00:55:28;12.40;78.20
18047;DHT22;9148;51.454;13.862;2023-06-01T00:57:55;12.30;78.80
18047;DHT22;9148;51.454;13.862;2023-06-01T01:00:21;12.30;79.20
18047;DHT22;9148;51.454;13.862;2023-06-01T01:02:48;12.20;79.40
18047;DHT22;9148;51.454;13.862;2023-06-01T01:05:15;12.20;79.80
18047;DHT22;9148;51.454;13.862;2023-06-01T01:08:47;12.20;80.30
18047;DHT22;9148;51.454;13.862;2023-06-01T01:11:07;12.10;80.60
18047;DHT22;9148;51.454;13.862;2023-06-01T01:13:43;12.10;80.80
18047;DHT22;9148;51.454;13.862;2023-06-01T01:28:37;11.90;82.80
18047;DHT22;9148;51.454;13.862;2023-06-01T01:31:09;11.80;84.20
18047;DHT22;9148;51.454;13.862;2023-06-01T01:33:38;11.70;85.20
18047;DHT22;9148;51.454;13.862;2023-06-01T01:36:06;11.60;86.00
18047;DHT22;9148;51.454;13.862;2023-06-01T01:38:36;11.60;86.70
18047;DHT22;9148;51.454;13.862;2023-06-01T01:41:02;11.50;87.10
18047;DHT22;9148;51.454;13.862;2023-06-01T01:43:29;11.50;87.40
18047;DHT22;9148;51.454;13.862;2023-06-01T01:52:05;11.60;88.50
18047;DHT22;9148;51.454;13.862;2023-06-01T01:54:42;11.60;88.70
18047;DHT22;9148;51.454;13.862;2023-06-01T01:57:09;11.50;89.00
18047;DHT22;9148;51.454;13.862;2023-06-01T01:59:41;11.50;89.50
18047;DHT22;9148;51.454;13.862;2023-06-01T02:02:08;11.50;90.00
18047;DHT22;9148;51.454;13.862;2023-06-01T02:04:39;11.10;90.10
18047;DHT22;9148;51.454;13.862;2023-06-01T02:07:05;11.50;90.40
18047;DHT22;9148;51.454;13.862;2023-06-01T02:09:31;11.40;90.50
18047;DHT22;9148;51.454;13.862;2023-06-01T02:11:57;11.40;90.80
18047;DHT22;9148;51.454;13.862;2023-06-01T02:14:22;11.30;91.00
18047;DHT22;9148;51.454;13.862;2023-06-01T02:16:48;11.30;91.30
18047;DHT22;9148;51.454;13.862;2023-06-01T02:19:14;11.30;91.90
18047;DHT22;9148;51.454;13.862;2023-06-01T02:21:41;11.30;92.00
18047;DHT22;9148;51.454;13.862;2023-06-01T02:24:08;11.20;92.20
18047;DHT22;9148;51.454;13.862;2023-06-01T02:26:34;11.20;92.30
18047;DHT22;9148;51.454;13.862;2023-06-01T02:29:00;11.20;92.40
18047;DHT22;9148;51.454;13.862;2023-06-01T02:31:33;11.20;92.50
18047;DHT22;9148;51.454;13.862;2023-06-01T02:34:00;11.20;92.50
18047;DHT22;9148;51.454;13.862;2023-06-01T02:36:27;11.20;92.60
18047;DHT22;9148;51.454;13.862;2023-06-01T02:38:57;11.20;92.70
18047;DHT22;9148;51.454;13.862;2023-06-01T02:41:24;11.20;92.70
18047;DHT22;9148;51.454;13.862;2023-06-01T02:43:50;11.20;92.80
18047;DHT22;9148;51.454;13.862;2023-06-01T02:46:16;11.30;93.00
18047;DHT22;9148;51.454;13.862;2023-06-01T02:48:45;11.30;93.10
18047;DHT22;9148;51.454;13.862;2023-06-01T02:51:11;11.30;93.20
18047;DHT22;9148;51.454;13.862;2023-06-01T02:53:39;11.30;93.30
18047;DHT22;9148;51.454;13.862;2023-06-01T02:56:05;11.30;93.60
18047;DHT22;9148;51.454;13.862;2023-06-01T02:58:31;11.30;93.70
18047;DHT22;9148;51.454;13.862;2023-06-01T03:00:57;11.20;93.90
18047;DHT22;9148;51.454;13.862;2023-06-01T03:03:26;11.30;94.10
18047;DHT22;9148;51.454;13.862;2023-06-01T03:05:52;11.20;94.20
18047;DHT22;9148;51.454;13.862;2023-06-01T03:08:18;11.20;94.30
18047;DHT22;9148;51.454;13.862;2023-06-01T03:10:45;10.90;94.30
18047;DHT22;9148;51.454;13.862;2023-06-01T03:13:11;11.20;94.50
18047;DHT22;9148;51.454;13.862;2023-06-01T03:15:37;11.20;94.60
18047;DHT22;9148;51.454;13.862;2023-06-01T03:18:03;11.20;94.60
18047;DHT22;9148;51.454;13.862;2023-06-01T03:20:31;11.20;94.70
18047;DHT22;9148;51.454;13.862;2023-06-01T03:22:57;11.20;94.70
18047;DHT22;9148;51.454;13.862;2023-06-01T03:25:22;11.20;94.70
18047;DHT22;9148;51.454;13.862;2023-06-01T03:27:50;11.20;94.70
18047;DHT22;9148;51.454;13.862;2023-06-01T03:30:16;11.20;94.80
18047;DHT22;9148;51.454;13.862;2023-06-01T03:32:43;11.30;94.80
18047;DHT22;9148;51.454;13.862;2023-06-01T03:35:10;11.30;94.80
18047;DHT22;9148;51.454;13.862;2023-06-01T03:37:38;11.30;95.00
18047;DHT22;9148;51.454;13.862;2023-06-01T03:40:06;11.30;94.90
18047;DHT22;9148;51.454;13.862;2023-06-01T03:42:43;11.40;95.00
18047;DHT22;9148;51.454;13.862;2023-06-01T03:45:14;11.40;95.00
18047;DHT22;9148;51.454;13.862;2023-06-01T03:47:41;11.40;95.00
18047;DHT22;9148;51.454;13.862;2023-06-01T03:50:08;11.50;95.10
18047;DHT22;9148;51.454;13.862;2023-06-01T03:52:35;11.40;95.00
18047;DHT22;9148;51.454;13.862;2023-06-01T03:55:03;11.50;95.10
18047;DHT22;9148;51.454;13.862;2023-06-01T03:57:36;11.50;95.10
18047;DHT22;9148;51.454;13.862;2023-06-01T04:00:05;11.50;95.10
18047;DHT22;9148;51.454;13.862;2023-06-01T04:02:47;11.50;95.10
18047;DHT22;9148;51.454;13.862;2023-06-01T04:05:20;11.60;95.20
18047;DHT22;9148;51.454;13.862;2023-06-01T04:07:52;11.60;95.30
18047;DHT22;9148;51.454;13.862;2023-06-01T04:10:18;11.70;95.50
18047;DHT22;9148;51.454;13.862;2023-06-01T04:12:46;11.70;95.60
18047;DHT22;9148;51.454;13.862;2023-06-01T04:15:13;11.70;95.70
18047;DHT22;9148;51.454;13.862;2023-06-01T04:17:41;11.80;95.70
18047;DHT22;9148;51.454;13.862;2023-06-01T04:20:16;11.80;95.70
18047;DHT22;9148;51.454;13.862;2023-06-01T04:22:44;11.90;95.80
18047;DHT22;9148;51.454;13.862;2023-06-01T04:25:12;12.00;95.80
18047;DHT22;9148;51.454;13.862;2023-06-01T04:27:45;12.10;95.70
18047;DHT22;9148;51.454;13.862;2023-06-01T04:30:13;12.10;95.60
18047;DHT22;9148;51.454;13.862;2023-06-01T04:32:39;12.20;95.60
18047;DHT22;9148;51.454;13.862;2023-06-01T04:35:06;12.30;95.50
18047;DHT22;9148;51.454;13.862;2023-06-01T04:37:40;12.40;95.40
18047;DHT22;9148;51.454;13.862;2023-06-01T04:40:08;12.50;95.50
18047;DHT22;9148;51.454;13.862;2023-06-01T04:42:36;12.60;95.40
18047;DHT22;9148;51.454;13.862;2023-06-01T04:45:15;12.70;95.20
18047;DHT22;9148;51.454;13.862;2023-06-01T04:47:41;12.70;95.00
18047;DHT22;9148;51.454;13.862;2023-06-01T04:50:11;12.80;95.00
18047;DHT22;9148;51.454;13.862;2023-06-01T04:52:38;12.90;94.90
18047;DHT22;9148;51.454;13.862;2023-06-01T04:55:06;13.00;94.80
18047;DHT22;9148;51.454;13.862;2023-06-01T04:57:33;13.10;94.70
18047;DHT22;9148;51.454;13.862;2023-06-01T04:59:59;13.20;94.60
18047;DHT22;9148;51.454;13.862;2023-06-01T05:02:27;13.30;94.40
18047;DHT22;9148;51.454;13.862;2023-06-01T05:04:54;13.50;94.30
18047;DHT22;9148;51.454;13.862;2023-06-01T05:07:20;13.60;94.10
18047;DHT22;9148;51.454;13.862;2023-06-01T05:09:47;13.80;93.90
18047;DHT22;9148;51.454;13.862;2023-06-01T05:12:13;13.90;93.60
18047;DHT22;9148;51.454;13.862;2023-06-01T05:14:38;14.10;93.40
18047;DHT22;9148;51.454;13.862;2023-06-01T05:17:05;14.20;93.10
18047;DHT22;9148;51.454;13.862;2023-06-01T05:19:30;14.40;92.90
18047;DHT22;9148;51.454;13.862;2023-06-01T05:21:56;14.50;92.70
18047;DHT22;9148;51.454;13.862;2023-06-01T05:24:22;14.70;92.40
18047;DHT22;9148;51.454;13.862;2023-06-01T05:26:47;14.90;92.10
18047;DHT22;9148;51.454;13.862;2023-06-01T05:29:13;15.10;91.90
18047;DHT22;9148;51.454;13.862;2023-06-01T05:31:39;15.40;91.60
18047;DHT22;9148;51.454;13.862;2023-06-01T05:34:05;15.50;91.10
18047;DHT22;9148;51.454;13.862;2023-06-01T05:36:31;15.80;90.80
18047;DHT22;9148;51.454;13.862;2023-06-01T05:38:57;16.00;90.30
18047;DHT22;9148;51.454;13.862;2023-06-01T05:41:23;16.20;90.10
18047;DHT22;9148;51.454;13.862;2023-06-01T05:43:50;16.40;90.10
18047;DHT22;9148;51.454;13.862;2023-06-01T05:46:17;16.60;88.80
18047;DHT22;9148;51.454;13.862;2023-06-01T05:48:42;16.80;88.10
18047;DHT22;9148;51.454;13.862;2023-06-01T05:51:08;17.00;87.50
18047;DHT22;9148;51.454;13.862;2023-06-01T05:53:34;17.20;86.80
18047;DHT22;9148;51.454;13.862;2023-06-01T05:55:59;17.40;86.00
18047;DHT22;9148;51.454;13.862;2023-06-01T05:58:25;17.60;85.30
18047;DHT22;9148;51.454;13.862;2023-06-01T06:00:51;17.80;84.60
18047;DHT22;9148;51.454;13.862;2023-06-01T06:03:16;18.00;83.70
18047;DHT22;9148;51.454;13.862;2023-06-01T06:05:42;18.10;83.00
18047;DHT22;9148;51.454;13.862;2023-06-01T06:08:08;18.20;82.30
18047;DHT22;9148;51.454;13.862;2023-06-01T06:10:35;18.30;81.90
18047;DHT22;9148;51.454;13.862;2023-06-01T06:13:01;18.40;81.30
18047;DHT22;9148;51.454;13.862;2023-06-01T06:15:27;18.50;80.80
18047;DHT22;9148;51.454;13.862;2023-06-01T06:17:52;18.60;80.50
18047;DHT22;9148;51.454;13.862;2023-06-01T06:20:18;18.80;80.10
18047;DHT22;9148;51.454;13.862;2023-06-01T06:22:49;18.90;79.30
18047;DHT22;9148;51.454;13.862;2023-06-01T06:25:16;19.10;79.00
18047;DHT22;9148;51.454;13.862;2023-06-01T06:27:42;19.30;78.60
18047;DHT22;9148;51.454;13.862;2023-06-01T06:30:08;19.50;77.40
18047;DHT22;9148;51.454;13.862;2023-06-01T06:32:34;19.60;76.50
18047;DHT22;9148;51.454;13.862;2023-06-01T06:35:00;19.70;76.10
18047;DHT22;9148;51.454;13.862;2023-06-01T06:37:26;19.80;75.50
18047;DHT22;9148;51.454;13.862;2023-06-01T06:39:53;20.00;75.10
18047;DHT22;9148;51.454;13.862;2023-06-01T06:42:19;20.20;74.60
18047;DHT22;9148;51.454;13.862;2023-06-01T06:44:44;20.30;73.80
18047;DHT22;9148;51.454;13.862;2023-06-01T06:47:10;20.50;73.00
18047;DHT22;9148;51.454;13.862;2023-06-01T06:49:39;20.60;72.20
18047;DHT22;9148;51.454;13.862;2023-06-01T06:52:05;20.80;71.30
18047;DHT22;9148;51.454;13.862;2023-06-01T06:54:31;20.90;70.30
18047;DHT22;9148;51.454;13.862;2023-06-01T06:56:57;21.00;70.10
18047;DHT22;9148;51.454;13.862;2023-06-01T06:59:22;21.10;69.60
18047;DHT22;9148;51.454;13.862;2023-06-01T07:01:48;21.30;68.70
18047;DHT22;9148;51.454;13.862;2023-06-01T07:04:14;21.40;68.10
18047;DHT22;9148;51.454;13.862;2023-06-01T07:06:40;21.60;67.60
18047;DHT22;9148;51.454;13.862;2023-06-01T07:09:05;21.60;66.80
18047;DHT22;9148;51.454;13.862;2023-06-01T07:11:31;21.80;66.30
18047;DHT22;9148;51.454;13.862;2023-06-01T07:13:57;21.80;65.10
18047;DHT22;9148;51.454;13.862;2023-06-01T07:16:24;21.90;65.00
18047;DHT22;9148;51.454;13.862;2023-06-01T07:18:51;22.00;64.50
18047;DHT22;9148;51.454;13.862;2023-06-01T07:21:17;22.10;64.00
18047;DHT22;9148;51.454;13.862;2023-06-01T07:23:45;22.20;63.80
18047;DHT22;9148;51.454;13.862;2023-06-01T07:26:11;22.20;63.60
18047;DHT22;9148;51.454;13.862;2023-06-01T07:28:37;22.30;62.90
18047;DHT22;9148;51.454;13.862;2023-06-01T07:31:03;22.50;62.00
18047;DHT22;9148;51.454;13.862;2023-06-01T07:33:30;22.50;61.80
18047;DHT22;9148;51.454;13.862;2023-06-01T07:35:56;22.70;61.50
18047;DHT22;9148;51.454;13.862;2023-06-01T07:38:23;22.70;61.10
18047;DHT22;9148;51.454;13.862;2023-06-01T07:40:51;22.90;60.10
18047;DHT22;9148;51.454;13.862;2023-06-01T07:43:17;23.00;59.60
18047;DHT22;9148;51.454;13.862;2023-06-01T07:45:42;23.10;58.60
18047;DHT22;9148;51.454;13.862;2023-06-01T07:48:08;23.10;57.30
18047;DHT22;9148;51.454;13.862;2023-06-01T07:50:34;23.10;56.30
18047;DHT22;9148;51.454;13.862;2023-06-01T07:52:59;23.10;55.60
18047;DHT22;9148;51.454;13.862;2023-06-01T07:55:25;23.10;54.60
18047;DHT22;9148;51.454;13.862;2023-06-01T07:57:55;23.00;52.10
18047;DHT22;9148;51.454;13.862;2023-06-01T08:00:21;22.90;52.60
18047;DHT22;9148;51.454;13.862;2023-06-01T08:02:47;22.80;52.90
18047;DHT22;9148;51.454;13.862;2023-06-01T08:05:16;22.80;52.30
18047;DHT22;9148;51.454;13.862;2023-06-01T08:07:43;22.70;52.70
18047;DHT22;9148;51.454;13.862;2023-06-01T08:10:09;22.80;52.60
18047;DHT22;9148;51.454;13.862;2023-06-01T08:12:35;22.90;52.00
18047;DHT22;9148;51.454;13.862;2023-06-01T08:15:02;22.90;52.60
18047;DHT22;9148;51.454;13.862;2023-06-01T08:17:29;23.00;52.60
18047;DHT22;9148;51.454;13.862;2023-06-01T08:19:55;23.10;52.50
18047;DHT22;9148;51.454;13.862;2023-06-01T08:22:23;23.20;52.20
18047;DHT22;9148;51.454;13.862;2023-06-01T08:24:49;23.30;52.40
18047;DHT22;9148;51.454;13.862;2023-06-01T08:27:25;23.60;52.00
18047;DHT22;9148;51.454;13.862;2023-06-01T08:29:53;23.90;51.40
18047;DHT22;9148;51.454;13.862;2023-06-01T08:32:19;24.00;50.60
18047;DHT22;9148;51.454;13.862;2023-06-01T08:34:45;24.10;49.80
18047;DHT22;9148;51.454;13.862;2023-06-01T08:37:12;24.10;49.50
18047;DHT22;9148;51.454;13.862;2023-06-01T08:39:39;23.90;49.00
18047;DHT22;9148;51.454;13.862;2023-06-01T08:42:09;23.70;49.70
18047;DHT22;9148;51.454;13.862;2023-06-01T08:44:54;23.70;49.40
18047;DHT22;9148;51.454;13.862;2023-06-01T08:47:24;23.60;49.40
18047;DHT22;9148;51.454;13.862;2023-06-01T08:50:01;23.50;49.80
18047;DHT22;9148;51.454;13.862;2023-06-01T08:52:29;23.50;50.00
18047;DHT22;9148;51.454;13.862;2023-06-01T08:55:04;23.70;49.60
18047;DHT22;9148;51.454;13.862;2023-06-01T08:57:30;23.80;48.80
18047;DHT22;9148;51.454;13.862;2023-06-01T08:59:57;23.70;48.70
18047;DHT22;9148;51.454;13.862;2023-06-01T09:02:24;23.70;48.30
18047;DHT22;9148;51.454;13.862;2023-06-01T09:04:51;23.70;48.20
18047;DHT22;9148;51.454;13.862;2023-06-01T09:07:17;23.60;48.00
18047;DHT22;9148;51.454;13.862;2023-06-01T09:09:43;23.50;48.10
18047;DHT22;9148;51.454;13.862;2023-06-01T09:12:26;23.50;48.00
18047;DHT22;9148;51.454;13.862;2023-06-01T09:15:15;23.50;48.30
18047;DHT22;9148;51.454;13.862;2023-06-01T09:17:46;23.50;47.30
18047;DHT22;9148;51.454;13.862;2023-06-01T09:20:23;23.50;47.50
18047;DHT22;9148;51.454;13.862;2023-06-01T09:22:50;23.60;47.50
18047;DHT22;9148;51.454;13.862;2023-06-01T09:25:16;23.70;47.80
18047;DHT22;9148;51.454;13.862;2023-06-01T09:27:52;23.80;47.30
18047;DHT22;9148;51.454;13.862;2023-06-01T09:30:20;23.90;47.50
18047;DHT22;9148;51.454;13.862;2023-06-01T09:32:47;23.90;47.50
18047;DHT22;9148;51.454;13.862;2023-06-01T09:35:36;24.10;47.10
18047;DHT22;9148;51.454;13.862;2023-06-01T09:38:28;24.30;46.60
18047;DHT22;9148;51.454;13.862;2023-06-01T09:41:02;24.40;46.50
18047;DHT22;9148;51.454;13.862;2023-06-01T09:43:28;24.40;45.80
18047;DHT22;9148;51.454;13.862;2023-06-01T09:46:04;24.40;45.80
18047;DHT22;9148;51.454;13.862;2023-06-01T09:48:31;24.40;46.30
18047;DHT22;9148;51.454;13.862;2023-06-01T09:50:57;24.40;45.10
18047;DHT22;9148;51.454;13.862;2023-06-01T09:53:23;24.50;45.80
18047;DHT22;9148;51.454;13.862;2023-06-01T09:56:01;24.60;46.00
18047;DHT22;9148;51.454;13.862;2023-06-01T09:58:27;24.80;46.30
18047;DHT22;9148;51.454;13.862;2023-06-01T10:00:53;24.80;45.70
18047;DHT22;9148;51.454;13.862;2023-06-01T10:03:26;24.90;45.60
18047;DHT22;9148;51.454;13.862;2023-06-01T10:05:52;25.00;45.60
18047;DHT22;9148;51.454;13.862;2023-06-01T10:08:18;25.20;44.90
18047;DHT22;9148;51.454;13.862;2023-06-01T10:10:47;25.20;44.50
18047;DHT22;9148;51.454;13.862;2023-06-01T10:13:13;25.30;45.00
18047;DHT22;9148;51.454;13.862;2023-06-01T10:15:39;25.60;44.10
18047;DHT22;9148;51.454;13.862;2023-06-01T10:18:06;25.60;43.50
18047;DHT22;9148;51.454;13.862;2023-06-01T10:20:36;25.70;43.20
18047;DHT22;9148;51.454;13.862;2023-06-01T10:23:03;25.80;43.40
18047;DHT22;9148;51.454;13.862;2023-06-01T10:25:42;26.00;42.60
18047;DHT22;9148;51.454;13.862;2023-06-01T10:28:11;26.10;42.40
18047;DHT22;9148;51.454;13.862;2023-06-01T10:30:37;26.20;40.40
18047;DHT22;9148;51.454;13.862;2023-06-01T10:33:03;26.20;40.30
18047;DHT22;9148;51.454;13.862;2023-06-01T10:43:04;26.90;40.50
18047;DHT22;9148;51.454;13.862;2023-06-01T10:48:00;27.50;39.60
18047;DHT22;9148;51.454;13.862;2023-06-01T10:50:26;27.80;39.50
18047;DHT22;9148;51.454;13.862;2023-06-01T10:52:54;28.00;38.80
18047;DHT22;9148;51.454;13.862;2023-06-01T10:55:22;28.10;39.00
18047;DHT22;9148;51.454;13.862;2023-06-01T10:57:49;28.20;38.70
18047;DHT22;9148;51.454;13.862;2023-06-01T11:00:25;28.20;38.40
18047;DHT22;9148;51.454;13.862;2023-06-01T11:03:05;28.20;38.30
18047;DHT22;9148;51.454;13.862;2023-06-01T11:13:33;28.60;37.60
18047;DHT22;9148;51.454;13.862;2023-06-01T11:18:58;28.70;37.70
18047;DHT22;9148;51.454;13.862;2023-06-01T11:24:07;29.00;37.20
18047;DHT22;9148;51.454;13.862;2023-06-01T11:26:37;29.10;37.20
18047;DHT22;9148;51.454;13.862;2023-06-01T11:29:24;29.20;37.40
18047;DHT22;9148;51.454;13.862;2023-06-01T11:31:55;29.40;37.40
18047;DHT22;9148;51.454;13.862;2023-06-01T11:34:37;29.40;37.20
18047;DHT22;9148;51.454;13.862;2023-06-01T11:37:12;29.40;37.30
18047;DHT22;9148;51.454;13.862;2023-06-01T11:39:41;29.50;36.60
18047;DHT22;9148;51.454;13.862;2023-06-01T11:42:18;29.50;36.40
18047;DHT22;9148;51.454;13.862;2023-06-01T11:44:56;29.50;36.10
18047;DHT22;9148;51.454;13.862;2023-06-01T11:47:27;29.30;35.20
18047;DHT22;9148;51.454;13.862;2023-06-01T11:49:54;29.20;35.40
18047;DHT22;9148;51.454;13.862;2023-06-01T11:52:20;29.00;35.80
18047;DHT22;9148;51.454;13.862;2023-06-01T11:54:47;29.00;36.20
18047;DHT22;9148;51.454;13.862;2023-06-01T11:57:13;28.90;36.50
18047;DHT22;9148;51.454;13.862;2023-06-01T11:59:41;29.00;36.40
18047;DHT22;9148;51.454;13.862;2023-06-01T12:02:25;29.10;34.50
18047;DHT22;9148;51.454;13.862;2023-06-01T12:05:06;29.10;33.90
18047;DHT22;9148;51.454;13.862;2023-06-01T12:07:44;29.00;33.10
18047;DHT22;9148;51.454;13.862;2023-06-01T12:10:12;28.90;33.00
18047;DHT22;9148;51.454;13.862;2023-06-01T12:12:42;28.80;32.80
18047;DHT22;9148;51.454;13.862;2023-06-01T12:15:15;28.60;32.50
18047;DHT22;9148;51.454;13.862;2023-06-01T12:17:50;28.50;32.70
18047;DHT22;9148;51.454;13.862;2023-06-01T12:20:29;28.40;32.90
18047;DHT22;9148;51.454;13.862;2023-06-01T12:23:00;28.40;32.60
18047;DHT22;9148;51.454;13.862;2023-06-01T12:25:29;28.40;32.00
18047;DHT22;9148;51.454;13.862;2023-06-01T12:28:07;28.40;32.40
18047;DHT22;9148;51.454;13.862;2023-06-01T12:30:33;28.40;31.80
18047;DHT22;9148;51.454;13.862;2023-06-01T12:33:00;28.20;32.00
18047;DHT22;9148;51.454;13.862;2023-06-01T12:35:26;28.20;32.70
18047;DHT22;9148;51.454;13.862;2023-06-01T12:38:09;28.30;33.30
18047;DHT22;9148;51.454;13.862;2023-06-01T12:40:38;28.50;33.20
18047;DHT22;9148;51.454;13.862;2023-06-01T12:43:17;28.60;32.60
18047;DHT22;9148;51.454;13.862;2023-06-01T12:45:46;28.80;33.00
18047;DHT22;9148;51.454;13.862;2023-06-01T12:48:51;28.80;32.80
18047;DHT22;9148;51.454;13.862;2023-06-01T12:51:19;28.80;33.10
18047;DHT22;9148;51.454;13.862;2023-06-01T12:53:45;28.90;32.90
18047;DHT22;9148;51.454;13.862;2023-06-01T12:56:12;29.10;33.20
18047;DHT22;9148;51.454;13.862;2023-06-01T12:58:38;29.20;33.00
18047;DHT22;9148;51.454;13.862;2023-06-01T13:01:05;29.30;32.80
18047;DHT22;9148;51.454;13.862;2023-06-01T13:03:31;29.30;32.80
18047;DHT22;9148;51.454;13.862;2023-06-01T13:05:58;29.20;32.90
18047;DHT22;9148;51.454;13.862;2023-06-01T13:08:24;29.10;33.00
18047;DHT22;9148;51.454;13.862;2023-06-01T13:10:50;29.10;33.50
18047;DHT22;9148;51.454;13.862;2023-06-01T13:13:16;29.20;33.30
18047;DHT22;9148;51.454;13.862;2023-06-01T13:15:42;29.30;32.80
18047;DHT22;9148;51.454;13.862;2023-06-01T13:18:08;29.30;32.90
18047;DHT22;9148;51.454;13.862;2023-06-01T13:20:35;29.20;33.00
18047;DHT22;9148;51.454;13.862;2023-06-01T13:23:01;29.00;32.90
18047;DHT22;9148;51.454;13.862;2023-06-01T13:25:28;28.90;33.30
18047;DHT22;9148;51.454;13.862;2023-06-01T13:27:54;28.90;33.70
18047;DHT22;9148;51.454;13.862;2023-06-01T13:30:21;28.90;33.60
18047;DHT22;9148;51.454;13.862;2023-06-01T13:32:47;29.00;33.80
18047;DHT22;9148;51.454;13.862;2023-06-01T13:35:13;29.20;33.60
18047;DHT22;9148;51.454;13.862;2023-06-01T13:37:39;29.50;33.70
18047;DHT22;9148;51.454;13.862;2023-06-01T13:40:05;29.50;33.40
18047;DHT22;9148;51.454;13.862;2023-06-01T13:42:32;29.40;33.70
18047;DHT22;9148;51.454;13.862;2023-06-01T13:44:58;29.50;34.10
18047;DHT22;9148;51.454;13.862;2023-06-01T13:47:24;29.60;33.60
18047;DHT22;9148;51.454;13.862;2023-06-01T13:49:51;29.80;33.60
18047;DHT22;9148;51.454;13.862;2023-06-01T13:52:16;29.90;32.90
18047;DHT22;9148;51.454;13.862;2023-06-01T13:54:42;30.00;32.90
18047;DHT22;9148;51.454;13.862;2023-06-01T13:57:09;30.00;33.20
18047;DHT22;9148;51.454;13.862;2023-06-01T13:59:45;29.90;33.30
18047;DHT22;9148;51.454;13.862;2023-06-01T14:02:11;29.90;33.10
18047;DHT22;9148;51.454;13.862;2023-06-01T14:04:37;29.70;32.50
18047;DHT22;9148;51.454;13.862;2023-06-01T14:07:02;29.70;32.70
18047;DHT22;9148;51.454;13.862;2023-06-01T14:09:28;29.70;33.30
18047;DHT22;9148;51.454;13.862;2023-06-01T14:11:54;29.80;33.70
18047;DHT22;9148;51.454;13.862;2023-06-01T14:14:20;29.80;33.70
18047;DHT22;9148;51.454;13.862;2023-06-01T14:16:45;29.80;34.00
18047;DHT22;9148;51.454;13.862;2023-06-01T14:19:11;30.10;34.10
18047;DHT22;9148;51.454;13.862;2023-06-01T14:21:37;30.30;33.90
18047;DHT22;9148;51.454;13.862;2023-06-01T14:24:03;30.40;33.60
18047;DHT22;9148;51.454;13.862;2023-06-01T14:26:30;30.40;33.10
18047;DHT22;9148;51.454;13.862;2023-06-01T14:28:55;30.30;33.50
18047;DHT22;9148;51.454;13.862;2023-06-01T14:31:21;30.30;33.60
18047;DHT22;9148;51.454;13.862;2023-06-01T14:33:48;30.40;33.60
18047;DHT22;9148;51.454;13.862;2023-06-01T14:36:13;30.40;33.30
18047;DHT22;9148;51.454;13.862;2023-06-01T14:38:39;30.30;33.50
18047;DHT22;9148;51.454;13.862;2023-06-01T14:41:06;30.20;33.40
18047;DHT22;9148;51.454;13.862;2023-06-01T14:43:32;30.30;33.50
18047;DHT22;9148;51.454;13.862;2023-06-01T14:45:58;30.30;33.50
18047;DHT22;9148;51.454;13.862;2023-06-01T14:48:24;30.20;33.60
18047;DHT22;9148;51.454;13.862;2023-06-01T14:50:50;30.20;33.40
18047;DHT22;9148;51.454;13.862;2023-06-01T14:53:16;30.10;33.30
18047;DHT22;9148;51.454;13.862;2023-06-01T14:55:42;30.00;33.50
18047;DHT22;9148;51.454;13.862;2023-06-01T14:58:08;29.90;33.70
18047;DHT22;9148;51.454;13.862;2023-06-01T15:00:34;29.80;33.90
18047;DHT22;9148;51.454;13.862;2023-06-01T15:03:01;29.70;33.30
18047;DHT22;9148;51.454;13.862;2023-06-01T15:05:27;29.50;33.70
18047;DHT22;9148;51.454;13.862;2023-06-01T15:07:53;29.40;34.10
18047;DHT22;9148;51.454;13.862;2023-06-01T15:10:19;29.40;34.20
18047;DHT22;9148;51.454;13.862;2023-06-01T15:12:44;29.40;34.10
18047;DHT22;9148;51.454;13.862;2023-06-01T15:15:10;29.30;34.00
18047;DHT22;9148;51.454;13.862;2023-06-01T15:17:36;29.30;34.00
18047;DHT22;9148;51.454;13.862;2023-06-01T15:20:02;29.20;34.10
18047;DHT22;9148;51.454;13.862;2023-06-01T15:22:27;29.10;34.30
18047;DHT22;9148;51.454;13.862;2023-06-01T15:24:53;29.10;34.30
18047;DHT22;9148;51.454;13.862;2023-06-01T15:27:19;28.90;34.40
18047;DHT22;9148;51.454;13.862;2023-06-01T15:29:45;28.80;34.50
18047;DHT22;9148;51.454;13.862;2023-06-01T15:32:11;28.70;34.80
18047;DHT22;9148;51.454;13.862;2023-06-01T15:34:37;28.50;34.70
18047;DHT22;9148;51.454;13.862;2023-06-01T15:37:07;28.30;35.00
18047;DHT22;9148;51.454;13.862;2023-06-01T15:39:34;28.20;35.00
18047;DHT22;9148;51.454;13.862;2023-06-01T15:42:01;28.00;35.00
18047;DHT22;9148;51.454;13.862;2023-06-01T15:44:29;27.90;34.90
18047;DHT22;9148;51.454;13.862;2023-06-01T15:46:55;27.70;35.50
18047;DHT22;9148;51.454;13.862;2023-06-01T15:49:21;27.60;35.20
18047;DHT22;9148;51.454;13.862;2023-06-01T15:51:46;27.50;35.00
18047;DHT22;9148;51.454;13.862;2023-06-01T15:54:12;27.40;34.00
18047;DHT22;9148;51.454;13.862;2023-06-01T15:56:38;27.30;34.10
18047;DHT22;9148;51.454;13.862;2023-06-01T15:59:03;27.20;34.20
18047;DHT22;9148;51.454;13.862;2023-06-01T16:01:29;27.00;34.40
18047;DHT22;9148;51.454;13.862;2023-06-01T16:03:55;26.90;34.60
18047;DHT22;9148;51.454;13.862;2023-06-01T16:06:21;26.70;35.10
18047;DHT22;9148;51.454;13.862;2023-06-01T16:08:46;26.60;35.50
18047;DHT22;9148;51.454;13.862;2023-06-01T16:11:12;26.50;36.00
18047;DHT22;9148;51.454;13.862;2023-06-01T16:13:38;26.30;36.40
18047;DHT22;9148;51.454;13.862;2023-06-01T16:16:03;26.20;37.20
18047;DHT22;9148;51.454;13.862;2023-06-01T16:18:29;26.10;37.70